createdAt,value
2022-11-16T00:01:43.190Z,5.30
2022-11-16T00:04:11.889Z,5.30
2022-11-16T00:06:38.802Z,5.30
2022-11-16T00:09:23.790Z,5.30
2022-11-16T00:11:51.818Z,5.20
2022-11-16T00:14:19.215Z,5.20
2022-11-16T00:16:46.037Z,5.30
2022-11-16T00:19:13.108Z,5.30
2022-11-16T00:21:39.885Z,5.40
2022-11-16T00:24:07.637Z,5.40
2022-11-16T00:26:34.235Z,5.40
2022-11-16T00:29:00.900Z,5.50
2022-11-16T00:31:27.486Z,5.50
2022-11-16T00:33:54.107Z,5.60
2022-11-16T00:36:20.706Z,5.60
2022-11-16T00:38:47.543Z,5.70
2022-11-16T00:41:14.275Z,5.70
2022-11-16T00:43:41.058Z,5.80
2022-11-16T00:46:08.834Z,5.80
2022-11-16T00:48:35.735Z,5.80
2022-11-16T00:51:02.635Z,5.80
2022-11-16T00:53:29.238Z,5.80
2022-11-16T00:55:55.866Z,5.80
2022-11-16T00:58:22.516Z,5.90
2022-11-16T01:00:49.320Z,5.80
2022-11-16T01:03:16.106Z,5.80
2022-11-16T01:05:42.787Z,5.80
2022-11-16T01:08:09.777Z,5.90
2022-11-16T01:10:37.966Z,5.80
2022-11-16T01:13:04.624Z,5.90
2022-11-16T01:15:31.262Z,5.90
2022-11-16T01:17:57.875Z,5.90
2022-11-16T01:20:25.960Z,5.90
2022-11-16T01:22:53.017Z,5.90
2022-11-16T01:25:19.902Z,6.00
2022-11-16T01:27:46.506Z,6.00
2022-11-16T01:30:14.135Z,6.00
2022-11-16T01:32:40.803Z,6.10
2022-11-16T01:35:07.588Z,6.10
2022-11-16T01:37:34.230Z,6.10
2022-11-16T01:40:00.879Z,6.20
2022-11-16T01:42:28.712Z,6.20
2022-11-16T01:45:15.726Z,6.30
2022-11-16T01:47:42.477Z,6.30
2022-11-16T01:50:11.007Z,6.40
2022-11-16T01:52:39.125Z,6.40
2022-11-16T01:55:05.950Z,6.40
2022-11-16T01:57:35.698Z,6.50
2022-11-16T02:00:03.774Z,6.50
2022-11-16T02:02:30.436Z,6.60
2022-11-16T02:04:58.216Z,6.60
2022-11-16T02:08:00.055Z,6.60
2022-11-16T02:10:36.499Z,6.60
2022-11-16T02:13:21.794Z,6.70
2022-11-16T02:16:04.539Z,6.70
2022-11-16T02:18:54.394Z,6.60
2022-11-16T02:21:29.597Z,6.70
2022-11-16T02:23:56.169Z,6.70
2022-11-16T02:26:31.901Z,6.70
2022-11-16T02:29:16.726Z,6.70
2022-11-16T02:31:50.419Z,6.70
2022-11-16T02:34:17.976Z,6.70
2022-11-16T02:36:47.176Z,6.80
2022-11-16T02:39:16.254Z,6.80
2022-11-16T02:41:44.102Z,6.80
2022-11-16T02:44:21.470Z,6.90
2022-11-16T02:46:51.566Z,6.90
2022-11-16T02:49:19.078Z,6.90
2022-11-16T02:51:47.051Z,6.90
2022-11-16T02:54:18.120Z,6.90
2022-11-16T02:56:50.666Z,7.00
2022-11-16T02:59:17.888Z,7.00
2022-11-16T03:02:00.573Z,7.00
2022-11-16T03:04:35.113Z,7.00
2022-11-16T03:07:03.058Z,7.00
2022-11-16T03:09:30.980Z,7.10
2022-11-16T03:11:59.654Z,7.10
2022-11-16T03:14:35.041Z,7.10
2022-11-16T03:17:02.434Z,7.10
2022-11-16T03:19:35.153Z,7.10
2022-11-16T03:22:05.881Z,7.10
2022-11-16T03:24:32.541Z,7.10
2022-11-16T03:26:59.134Z,7.10
2022-11-16T03:29:52.151Z,7.10
2022-11-16T03:32:45.166Z,7.10
2022-11-16T03:35:21.582Z,7.10
2022-11-16T03:37:50.434Z,7.10
2022-11-16T03:40:17.800Z,7.10
2022-11-16T03:42:45.273Z,7.10
2022-11-16T03:45:13.063Z,7.10
2022-11-16T03:47:40.413Z,7.10
2022-11-16T03:50:07.209Z,7.10
2022-11-16T03:52:34.413Z,7.10
2022-11-16T03:55:01.063Z,7.10
2022-11-16T03:57:27.667Z,7.10
2022-11-16T03:59:54.327Z,7.10
2022-11-16T04:02:20.971Z,7.10
2022-11-16T04:05:06.344Z,7.10
2022-11-16T04:07:51.486Z,7.20
2022-11-16T04:10:36.602Z,7.20
2022-11-16T04:13:22.099Z,7.10
2022-11-16T04:16:07.189Z,7.20
2022-11-16T04:18:54.136Z,7.20
2022-11-16T04:21:41.738Z,7.10
2022-11-16T04:24:19.282Z,7.10
2022-11-16T04:27:06.190Z,7.10
2022-11-16T04:29:33.161Z,7.20
2022-11-16T04:32:18.506Z,7.20
2022-11-16T04:35:03.627Z,7.20
2022-11-16T04:37:48.782Z,7.20
2022-11-16T04:40:19.440Z,7.20
2022-11-16T04:42:52.697Z,7.20
2022-11-16T04:45:38.510Z,7.20
2022-11-16T04:48:05.441Z,7.20
2022-11-16T04:50:32.315Z,7.10
2022-11-16T04:52:58.976Z,7.10
2022-11-16T04:55:25.631Z,7.10
2022-11-16T04:57:52.656Z,7.10
2022-11-16T05:00:19.403Z,7.10
2022-11-16T05:02:46.518Z,7.10
2022-11-16T05:05:13.586Z,7.10
2022-11-16T05:07:40.453Z,7.10
2022-11-16T05:10:07.408Z,7.10
2022-11-16T05:12:34.608Z,7.10
2022-11-16T05:15:01.267Z,7.10
2022-11-16T05:17:28.236Z,7.10
2022-11-16T05:20:13.645Z,7.10
2022-11-16T05:22:40.268Z,7.10
2022-11-16T05:25:09.769Z,7.10
2022-11-16T05:27:37.310Z,7.10
2022-11-16T05:30:07.726Z,7.10
2022-11-16T05:32:34.398Z,7.10
2022-11-16T05:35:01.023Z,7.10
2022-11-16T05:37:27.705Z,7.10
2022-11-16T05:39:54.864Z,7.10
2022-11-16T05:42:21.549Z,7.20
2022-11-16T05:44:48.213Z,7.20
2022-11-16T05:47:14.945Z,7.20
2022-11-16T05:49:41.542Z,7.20
2022-11-16T05:52:08.182Z,7.20
2022-11-16T05:54:34.917Z,7.20
2022-11-16T05:57:01.537Z,7.20
2022-11-16T05:59:29.962Z,7.20
2022-11-16T06:01:56.661Z,7.30
2022-11-16T06:04:24.632Z,7.30
2022-11-16T06:06:51.685Z,7.30
2022-11-16T06:09:18.301Z,7.30
2022-11-16T06:11:44.920Z,7.30
2022-11-16T06:14:11.571Z,7.30
2022-11-16T06:16:38.238Z,7.40
2022-11-16T06:19:04.859Z,7.40
2022-11-16T06:21:31.616Z,7.40
2022-11-16T06:23:58.255Z,7.40
2022-11-16T06:26:24.918Z,7.40
2022-11-16T06:28:51.626Z,7.40
2022-11-16T06:31:18.262Z,7.40
2022-11-16T06:33:44.926Z,7.40
2022-11-16T06:36:11.554Z,7.40
2022-11-16T06:38:38.483Z,7.40
2022-11-16T06:41:05.209Z,7.50
2022-11-16T06:43:31.832Z,7.50
2022-11-16T06:45:58.572Z,7.50
2022-11-16T06:48:25.593Z,7.50
2022-11-16T06:50:52.310Z,7.50
2022-11-16T06:53:19.280Z,7.50
2022-11-16T06:55:45.949Z,7.50
2022-11-16T06:58:12.795Z,7.50
2022-11-16T07:00:39.529Z,7.50
2022-11-16T07:03:06.180Z,7.50
2022-11-16T07:05:33.234Z,7.60
2022-11-16T07:08:00.091Z,7.60
2022-11-16T07:10:26.748Z,7.60
2022-11-16T07:12:53.358Z,7.60
2022-11-16T07:15:20.563Z,7.60
2022-11-16T07:17:47.380Z,7.60
2022-11-16T07:20:14.118Z,7.70
2022-11-16T07:22:40.876Z,7.70
2022-11-16T07:25:07.985Z,7.70
2022-11-16T07:27:34.689Z,7.80
2022-11-16T07:30:02.290Z,7.80
2022-11-16T07:32:30.254Z,7.80
2022-11-16T07:35:34.766Z,7.90
2022-11-16T07:38:38.875Z,8.00
2022-11-16T07:41:43.172Z,8.00
2022-11-16T07:44:47.412Z,8.10
2022-11-16T07:47:53.038Z,8.10
2022-11-16T07:50:19.744Z,8.20
2022-11-16T07:52:46.668Z,8.20
2022-11-16T07:55:13.490Z,8.30
2022-11-16T07:57:40.271Z,8.30
2022-11-16T08:00:07.198Z,8.40
2022-11-16T08:02:33.842Z,8.40
2022-11-16T08:05:00.684Z,8.50
2022-11-16T08:07:27.403Z,8.50
2022-11-16T08:09:54.264Z,8.60
2022-11-16T08:12:21.247Z,8.60
2022-11-16T08:14:47.986Z,8.70
2022-11-16T08:17:14.697Z,8.70
2022-11-16T08:19:42.431Z,8.70
2022-11-16T08:22:09.112Z,8.70
2022-11-16T08:24:35.738Z,8.80
2022-11-16T08:27:02.394Z,8.80
2022-11-16T08:29:29.539Z,8.80
2022-11-16T08:31:56.199Z,8.90
2022-11-16T08:34:22.877Z,8.90
2022-11-16T08:36:49.553Z,9.00
2022-11-16T08:39:16.157Z,9.00
2022-11-16T08:41:44.358Z,9.00
2022-11-16T08:44:11.408Z,9.10
2022-11-16T08:46:39.478Z,9.10
2022-11-16T08:49:06.182Z,9.20
2022-11-16T08:51:33.163Z,9.20
2022-11-16T08:54:00.042Z,9.20
2022-11-16T08:56:27.357Z,9.30
2022-11-16T08:58:58.422Z,9.30
2022-11-16T09:01:27.489Z,9.30
2022-11-16T09:03:54.572Z,9.30
2022-11-16T09:06:21.737Z,9.40
2022-11-16T09:08:48.540Z,9.40
2022-11-16T09:11:17.286Z,9.50
2022-11-16T09:13:44.455Z,9.50
2022-11-16T09:16:11.625Z,9.60
2022-11-16T09:18:38.311Z,9.60
2022-11-16T09:21:04.976Z,9.70
2022-11-16T09:23:31.583Z,9.80
2022-11-16T09:26:00.708Z,9.90
2022-11-16T09:28:27.308Z,10.00
2022-11-16T09:30:53.979Z,10.00
2022-11-16T09:33:20.581Z,10.10
2022-11-16T09:35:48.154Z,10.20
2022-11-16T09:38:20.708Z,10.30
2022-11-16T09:40:53.544Z,10.40
2022-11-16T09:43:23.202Z,10.40
2022-11-16T09:45:56.031Z,10.50
2022-11-16T09:48:22.954Z,10.60
2022-11-16T09:50:51.768Z,10.60
2022-11-16T09:53:30.635Z,10.70
2022-11-16T09:55:59.942Z,10.70
2022-11-16T09:58:43.498Z,10.70
2022-11-16T10:01:26.027Z,10.70
2022-11-16T10:03:58.583Z,10.70
2022-11-16T10:06:37.687Z,10.70
2022-11-16T10:09:04.713Z,10.70
2022-11-16T10:11:37.518Z,10.70
2022-11-16T10:14:04.610Z,10.70
2022-11-16T10:16:37.482Z,10.70
2022-11-16T10:19:10.717Z,10.80
2022-11-16T10:21:42.147Z,10.80
2022-11-16T10:24:33.496Z,10.80
2022-11-16T10:27:29.810Z,10.90
2022-11-16T10:30:02.568Z,10.90
2022-11-16T10:32:34.553Z,10.80
2022-11-16T10:35:12.922Z,10.80
2022-11-16T10:37:41.081Z,10.80
2022-11-16T10:40:29.285Z,10.80
2022-11-16T10:43:14.692Z,10.70
2022-11-16T10:45:41.332Z,10.70
2022-11-16T10:48:14.572Z,10.80
2022-11-16T10:50:43.988Z,10.80
2022-11-16T10:53:34.152Z,10.80
2022-11-16T10:56:11.426Z,10.90
2022-11-16T10:58:57.295Z,10.90
2022-11-16T11:01:43.655Z,10.90
2022-11-16T11:04:29.654Z,11.00
2022-11-16T11:06:57.596Z,11.10
2022-11-16T11:09:27.333Z,11.20
2022-11-16T11:12:31.799Z,11.20
2022-11-16T11:15:11.082Z,11.40
2022-11-16T11:17:37.697Z,11.40
2022-11-16T11:20:06.007Z,11.60
2022-11-16T11:22:34.886Z,11.60
2022-11-16T11:25:03.369Z,11.60
2022-11-16T11:27:33.052Z,11.70
2022-11-16T11:30:00.424Z,11.70
2022-11-16T11:32:32.152Z,11.80
2022-11-16T11:35:00.438Z,11.90
2022-11-16T11:37:32.484Z,11.90
2022-11-16T11:40:05.313Z,11.90
2022-11-16T11:42:31.996Z,12.00
2022-11-16T11:45:00.226Z,12.00
2022-11-16T11:47:57.510Z,12.10
2022-11-16T11:50:16.943Z,12.20
2022-11-16T11:52:52.574Z,12.20
2022-11-16T11:55:19.424Z,12.20
2022-11-16T11:57:47.240Z,12.20
2022-11-16T12:00:15.631Z,12.20
2022-11-16T12:02:48.880Z,12.20
2022-11-16T12:05:35.025Z,12.30
2022-11-16T12:08:28.089Z,12.30
2022-11-16T12:10:58.375Z,12.40
2022-11-16T12:13:28.202Z,12.40
2022-11-16T12:15:54.896Z,12.40
2022-11-16T12:18:45.074Z,12.40
2022-11-16T12:21:16.947Z,12.40
2022-11-16T12:24:02.438Z,12.30
2022-11-16T12:26:38.510Z,12.30
2022-11-16T12:29:08.190Z,12.20
2022-11-16T12:31:42.445Z,12.10
2022-11-16T12:34:12.138Z,12.00
2022-11-16T12:36:38.728Z,11.90
2022-11-16T12:39:08.322Z,11.70
2022-11-16T12:41:53.184Z,11.60
2022-11-16T12:44:25.941Z,11.50
2022-11-16T12:47:11.303Z,11.50
2022-11-16T12:49:37.887Z,11.50
2022-11-16T12:52:13.297Z,11.50
2022-11-16T12:55:24.957Z,11.50
2022-11-16T12:57:54.377Z,11.50
2022-11-16T13:00:21.089Z,11.60
2022-11-16T13:02:53.573Z,11.60
2022-11-16T13:05:23.192Z,11.70
2022-11-16T13:07:54.911Z,11.80
2022-11-16T13:10:28.051Z,11.90
2022-11-16T13:13:15.369Z,12.00
2022-11-16T13:15:47.894Z,12.20
2022-11-16T13:18:16.849Z,12.30
2022-11-16T13:20:55.558Z,12.50
2022-11-16T13:23:31.939Z,12.60
2022-11-16T13:26:10.424Z,12.70
2022-11-16T13:28:50.578Z,12.80
2022-11-16T13:31:39.514Z,12.90
2022-11-16T13:34:07.595Z,13.10
2022-11-16T13:36:37.271Z,13.30
2022-11-16T13:39:05.235Z,13.40
2022-11-16T13:41:34.134Z,13.50
2022-11-16T13:44:01.885Z,13.50
2022-11-16T13:46:55.312Z,13.40
2022-11-16T13:49:33.231Z,13.40
2022-11-16T13:52:17.322Z,13.30
2022-11-16T13:54:51.320Z,13.20
2022-11-16T13:57:29.585Z,13.10
2022-11-16T13:59:56.203Z,12.90
2022-11-16T14:02:30.933Z,12.80
2022-11-16T14:05:00.618Z,12.70
2022-11-16T14:07:28.964Z,12.50
2022-11-16T14:09:55.671Z,12.40
2022-11-16T14:12:37.587Z,12.30
2022-11-16T14:15:15.017Z,12.20
2022-11-16T14:17:59.475Z,12.20
2022-11-16T14:20:29.962Z,12.10
2022-11-16T14:23:05.236Z,12.10
2022-11-16T14:25:36.386Z,12.10
2022-11-16T14:28:14.647Z,12.10
2022-11-16T14:30:55.023Z,12.10
2022-11-16T14:33:33.587Z,12.10
2022-11-16T14:36:01.663Z,12.10
2022-11-16T14:38:34.426Z,12.10
2022-11-16T14:41:02.577Z,12.00
2022-11-16T14:43:48.118Z,12.00
2022-11-16T14:46:22.417Z,11.90
2022-11-16T14:48:49.446Z,11.80
2022-11-16T14:51:19.162Z,11.80
2022-11-16T14:53:48.321Z,11.70
2022-11-16T14:56:16.159Z,11.60
2022-11-16T14:58:53.023Z,11.50
2022-11-16T15:01:21.051Z,11.40
2022-11-16T15:04:04.384Z,11.40
2022-11-16T15:06:36.805Z,11.30
2022-11-16T15:09:04.241Z,11.20
2022-11-16T15:11:51.612Z,11.10
2022-11-16T15:14:20.101Z,11.10
2022-11-16T15:16:51.167Z,11.00
2022-11-16T15:19:17.867Z,10.90
2022-11-16T15:21:54.771Z,10.90
2022-11-16T15:24:32.456Z,10.80
2022-11-16T15:27:08.348Z,10.70
2022-11-16T15:29:35.420Z,10.70
2022-11-16T15:32:02.067Z,10.70
2022-11-16T15:34:28.715Z,10.60
2022-11-16T15:36:55.356Z,10.60
2022-11-16T15:39:23.066Z,10.60
2022-11-16T15:41:50.176Z,10.50
2022-11-16T15:44:18.977Z,10.50
2022-11-16T15:46:47.118Z,10.50
2022-11-16T15:49:19.943Z,10.50
2022-11-16T15:51:46.559Z,10.40
2022-11-16T15:54:14.543Z,10.40
2022-11-16T15:56:41.598Z,10.30
2022-11-16T15:59:13.206Z,10.30
2022-11-16T16:01:43.460Z,10.20
2022-11-16T16:04:14.305Z,10.10
2022-11-16T16:06:51.781Z,10.00
2022-11-16T16:09:24.809Z,9.80
2022-11-16T16:11:52.426Z,9.70
2022-11-16T16:14:24.248Z,9.50
2022-11-16T16:16:52.646Z,9.40
2022-11-16T16:19:38.275Z,9.30
2022-11-16T16:22:06.398Z,9.20
2022-11-16T16:24:44.077Z,9.00
2022-11-16T16:27:15.503Z,8.90
2022-11-16T16:29:42.258Z,8.80
2022-11-16T16:32:11.374Z,8.70
2022-11-16T16:34:42.184Z,8.60
2022-11-16T16:37:10.742Z,8.50
2022-11-16T16:39:38.675Z,8.40
2022-11-16T16:42:06.310Z,8.40
2022-11-16T16:44:32.926Z,8.20
2022-11-16T16:46:59.518Z,8.10
2022-11-16T16:49:26.131Z,8.00
2022-11-16T16:51:52.831Z,7.90
2022-11-16T16:54:19.455Z,7.80
2022-11-16T16:56:46.118Z,7.70
2022-11-16T16:59:13.219Z,7.60
2022-11-16T17:01:40.410Z,7.60
2022-11-16T17:04:07.277Z,7.50
2022-11-16T17:06:33.913Z,7.40
2022-11-16T17:09:00.513Z,7.30
2022-11-16T17:11:27.132Z,7.20
2022-11-16T17:13:53.717Z,7.20
2022-11-16T17:16:20.329Z,7.10
2022-11-16T17:18:47.715Z,7.00
2022-11-16T17:21:14.385Z,7.00
2022-11-16T17:23:41.049Z,6.90
2022-11-16T17:26:08.524Z,6.90
2022-11-16T17:28:35.225Z,6.90
2022-11-16T17:31:08.740Z,6.80
2022-11-16T17:33:36.105Z,6.80
2022-11-16T17:36:03.981Z,6.80
2022-11-16T17:38:31.179Z,6.70
2022-11-16T17:41:18.127Z,6.60
2022-11-16T17:43:45.666Z,6.60
2022-11-16T17:46:16.687Z,6.50
2022-11-16T17:48:44.238Z,6.60
2022-11-16T17:51:11.528Z,6.50
2022-11-16T17:53:39.792Z,6.50
2022-11-16T17:56:06.918Z,6.50
2022-11-16T17:58:33.757Z,6.50
2022-11-16T18:01:00.587Z,6.50
2022-11-16T18:03:28.432Z,6.40
2022-11-16T18:06:05.537Z,6.40
2022-11-16T18:08:32.773Z,6.40
2022-11-16T18:11:19.670Z,6.50
2022-11-16T18:13:47.025Z,6.50
2022-11-16T18:16:17.382Z,6.40
2022-11-16T18:18:44.752Z,6.40
2022-11-16T18:21:18.776Z,6.30
2022-11-16T18:23:46.906Z,6.20
2022-11-16T18:26:14.811Z,6.20
2022-11-16T18:28:41.623Z,6.10
2022-11-16T18:31:10.053Z,6.00
2022-11-16T18:33:37.927Z,6.00
2022-11-16T18:36:05.131Z,5.90
2022-11-16T18:38:32.049Z,5.90
2022-11-16T18:41:28.152Z,5.80
2022-11-16T18:43:56.098Z,5.80
2022-11-16T18:46:23.957Z,5.70
2022-11-16T18:48:50.721Z,5.60
2022-11-16T18:51:18.286Z,5.60
2022-11-16T18:53:44.979Z,5.50
2022-11-16T18:56:11.957Z,5.50
2022-11-16T18:58:54.387Z,5.40
2022-11-16T19:01:25.007Z,5.40
2022-11-16T19:03:52.687Z,5.40
2022-11-16T19:06:19.437Z,5.30
2022-11-16T19:08:53.677Z,5.30
2022-11-16T19:11:22.389Z,5.20
2022-11-16T19:13:51.795Z,5.20
2022-11-16T19:16:18.387Z,5.20
2022-11-16T19:18:45.033Z,5.20
2022-11-16T19:21:12.863Z,5.20
2022-11-16T19:23:40.651Z,5.10
2022-11-16T19:26:07.335Z,5.10
2022-11-16T19:28:37.725Z,5.10
2022-11-16T19:31:08.174Z,5.00
2022-11-16T19:33:35.473Z,5.00
2022-11-16T19:36:09.400Z,5.00
2022-11-16T19:38:36.190Z,4.90
2022-11-16T19:41:02.851Z,4.90
2022-11-16T19:43:29.484Z,4.90
2022-11-16T19:46:00.982Z,4.80
2022-11-16T19:48:27.586Z,4.90
2022-11-16T19:50:54.198Z,4.90
2022-11-16T19:53:20.804Z,4.90
2022-11-16T19:55:54.669Z,4.90
2022-11-16T19:58:21.282Z,4.80
2022-11-16T20:00:47.962Z,4.80
2022-11-16T20:03:14.636Z,4.80
2022-11-16T20:05:41.241Z,4.70
2022-11-16T20:08:07.863Z,4.70
2022-11-16T20:10:34.456Z,4.70
2022-11-16T20:13:01.034Z,4.60
2022-11-16T20:15:27.625Z,4.60
2022-11-16T20:17:54.287Z,4.60
2022-11-16T20:20:20.977Z,4.60
2022-11-16T20:22:47.870Z,4.60
2022-11-16T20:25:15.915Z,4.60
2022-11-16T20:27:42.795Z,4.50
2022-11-16T20:30:10.038Z,4.50
2022-11-16T20:32:36.687Z,4.40
2022-11-16T20:35:03.345Z,4.40
2022-11-16T20:37:29.992Z,4.40
2022-11-16T20:39:57.185Z,4.30
2022-11-16T20:42:24.114Z,4.20
2022-11-16T20:44:50.731Z,4.20
2022-11-16T20:47:17.348Z,4.20
2022-11-16T20:49:44.002Z,4.10
2022-11-16T20:52:10.606Z,4.10
2022-11-16T20:54:37.199Z,4.10
2022-11-16T20:57:04.701Z,4.00
2022-11-16T20:59:31.372Z,4.00
2022-11-16T21:01:57.982Z,4.00
2022-11-16T21:04:24.575Z,4.00
2022-11-16T21:06:51.211Z,3.90
2022-11-16T21:09:22.629Z,3.90
2022-11-16T21:12:09.722Z,3.90
2022-11-16T21:14:36.375Z,3.80
2022-11-16T21:17:03.098Z,3.80
2022-11-16T21:19:29.688Z,3.80
2022-11-16T21:21:56.284Z,3.70
2022-11-16T21:24:24.726Z,3.70
2022-11-16T21:26:52.245Z,3.70
2022-11-16T21:29:22.221Z,3.70
2022-11-16T21:31:48.988Z,3.60
2022-11-16T21:34:15.650Z,3.60
2022-11-16T21:36:42.243Z,3.60
2022-11-16T21:39:08.946Z,3.60
2022-11-16T21:41:35.550Z,3.50
2022-11-16T21:44:02.207Z,3.50
2022-11-16T21:46:28.881Z,3.40
2022-11-16T21:48:56.452Z,3.40
2022-11-16T21:51:25.163Z,3.40
2022-11-16T21:53:52.008Z,3.30
2022-11-16T21:56:19.636Z,3.30
2022-11-16T21:58:46.586Z,3.30
2022-11-16T22:01:13.763Z,3.30
2022-11-16T22:03:40.408Z,3.20
2022-11-16T22:06:26.734Z,3.20
2022-11-16T22:08:53.375Z,3.20
2022-11-16T22:11:22.140Z,3.10
2022-11-16T22:13:49.422Z,3.10
2022-11-16T22:16:16.698Z,3.10
2022-11-16T22:18:43.544Z,3.10
2022-11-16T22:21:10.391Z,3.10
2022-11-16T22:23:37.673Z,3.00
2022-11-16T22:26:05.949Z,3.00
2022-11-16T22:28:34.958Z,3.00
2022-11-16T22:31:02.641Z,3.00
2022-11-16T22:33:29.613Z,2.90
2022-11-16T22:35:56.506Z,2.90
2022-11-16T22:38:28.147Z,2.90
2022-11-16T22:40:55.764Z,2.90
2022-11-16T22:43:23.783Z,2.90
2022-11-16T22:45:50.401Z,2.80
2022-11-16T22:48:17.244Z,2.80
2022-11-16T22:50:43.897Z,2.80
2022-11-16T22:53:10.629Z,2.80
2022-11-16T22:55:38.024Z,2.80
2022-11-16T22:58:05.495Z,2.70
2022-11-16T23:00:37.508Z,2.70
2022-11-16T23:03:07.555Z,2.70
2022-11-16T23:05:34.253Z,2.70
2022-11-16T23:08:00.895Z,2.70
2022-11-16T23:10:28.911Z,2.70
2022-11-16T23:13:14.174Z,2.70
2022-11-16T23:15:49.506Z,2.70
2022-11-16T23:18:16.486Z,2.70
2022-11-16T23:21:01.861Z,2.60
2022-11-16T23:23:46.870Z,2.60
2022-11-16T23:26:35.145Z,2.60
2022-11-16T23:29:02.794Z,2.50
2022-11-16T23:31:29.395Z,2.50
2022-11-16T23:33:56.029Z,2.50
2022-11-16T23:36:22.624Z,2.50
2022-11-16T23:38:49.262Z,2.50
2022-11-16T23:41:34.490Z,2.50
2022-11-16T23:44:01.135Z,2.40
2022-11-16T23:46:28.452Z,2.40
2022-11-16T23:48:55.113Z,2.40
2022-11-16T23:51:23.442Z,2.40
2022-11-16T23:53:50.842Z,2.40
2022-11-16T23:56:18.103Z,2.30
2022-11-16T23:58:44.784Z,2.30
